Time;durP1;ratioP1;P1;durP2;ratioP2;P2;SDS_P1;SDS_P2;PMS_P1;PMS_P2;Temp;Humidity;BMP_temperature;BMP_pressure;BME280_temperature;BME280_humidity;BME280_pressure;Samples;Min_cycle;Max_cycle;Signal;HPM_P1;HPM_P2
2021/08/18 00:02:24;;;;;;;;;;;16.90;99.90;;;15.97;100.00;100481.41;5020961;28;19929;-81
2021/08/18 00:04:52;;;;;;;;;;;16.90;99.90;;;16.03;99.50;100481.38;5020885;28;19998;-81
2021/08/18 00:07:20;;;;;;;;;;;16.90;99.90;;;16.06;99.72;100479.25;5021034;28;20032;-81
2021/08/18 00:09:49;;;;;;;;;;;16.90;99.90;;;16.01;99.94;100483.50;5020990;28;19972;-81
2021/08/18 00:12:16;;;;;;;;;;;16.90;99.90;;;16.01;99.91;100489.00;5020389;28;19976;-81
2021/08/18 00:14:43;;;;;;;;;;;16.90;99.90;;;15.98;100.00;100489.41;5020731;28;19929;-81
2021/08/18 00:17:10;;;;;;;;;;;16.90;99.90;;;16.01;99.95;100486.25;5020490;28;19935;-81
2021/08/18 00:19:37;;;;;;;;;;;16.90;99.90;;;16.02;100.00;100489.81;5021318;28;20016;-81
2021/08/18 00:22:05;;;;;;;;;;;16.90;99.90;;;16.02;100.00;100479.69;5020624;28;19929;-81
2021/08/18 00:24:32;;;;;;;;;;;16.90;99.90;;;16.03;99.99;100486.88;5020542;28;20476;-81
2021/08/18 00:27:00;;;;;;;;;;;16.90;99.90;;;16.01;100.00;100480.75;5019937;28;19929;-81
2021/08/18 00:29:27;;;;;;;;;;;16.90;99.90;;;16.04;100.00;100471.22;5020327;28;19979;-81
2021/08/18 00:31:54;;;;;;;;;;;17.00;99.90;;;16.03;99.96;100470.38;5020089;28;19939;-81
2021/08/18 00:34:21;;;;;;;;;;;16.90;99.90;;;16.05;99.50;100466.56;5020627;28;20043;-81
2021/08/18 00:36:49;;;;;;;;;;;16.90;99.90;;;16.07;99.76;100469.94;5021214;28;19936;-81
2021/08/18 00:39:16;;;;;;;;;;;17.00;99.90;;;16.10;99.47;100469.50;5020915;28;20366;-81
2021/08/18 00:41:43;;;;;;;;;;;16.90;99.90;;;16.12;99.52;100470.13;5020732;28;19929;-81
2021/08/18 00:44:11;;;;;;;;;;;16.90;99.90;;;16.07;100.00;100464.44;5020982;28;20012;-81
2021/08/18 00:46:50;;;;;;;;;;;16.90;99.90;;;16.06;99.95;100460.88;5020427;28;19929;-81
2021/08/18 00:49:18;;;;;;;;;;;16.90;99.90;;;16.07;99.85;100464.44;5020413;28;19964;-81
2021/08/18 00:51:45;;;;;;;;;;;16.90;99.90;;;16.09;100.00;100462.31;5020114;28;19971;-81
2021/08/18 00:54:15;;;;;;;;;;;16.90;99.90;;;16.07;99.93;100465.31;5020038;28;19932;-81
2021/08/18 00:56:42;;;;;;;;;;;16.90;99.90;;;16.07;99.80;100464.44;5034425;23;19981;-83
2021/08/18 00:59:09;;;;;;;;;;;16.90;99.90;;;16.06;100.00;100460.03;5019579;28;20011;-84
2021/08/18 01:01:38;;;;;;;;;;;16.90;99.90;;;16.06;99.90;100465.53;5019415;28;19929;-84
2021/08/18 01:04:07;;;;;;;;;;;16.90;99.90;;;16.04;100.00;100460.25;5001551;28;20354;-84
2021/08/18 01:06:38;;;;;;;;;;;16.90;99.90;;;16.03;100.00;100462.16;5018707;28;20309;-84
2021/08/18 01:09:06;;;;;;;;;;;16.90;99.90;;;16.07;100.00;100469.94;5009596;28;19929;-84
2021/08/18 01:11:34;;;;;;;;;;;17.00;99.90;;;16.07;100.00;100469.94;5009372;28;20024;-84
2021/08/18 01:14:02;;;;;;;;;;;16.90;99.90;;;16.08;99.92;100466.13;5009632;28;20025;-84
2021/08/18 01:16:32;;;;;;;;;;;16.90;99.90;;;16.09;100.00;100467.81;5009472;28;19926;-84
2021/08/18 01:19:01;;;;;;;;;;;16.90;99.90;;;16.10;99.93;100473.06;5009530;28;19932;-84
2021/08/18 01:21:29;;;;;;;;;;;16.90;99.90;;;16.11;100.00;100466.53;5009258;28;19983;-83
2021/08/18 01:23:56;;;;;;;;;;;17.00;99.90;;;16.08;100.00;100474.38;5008922;28;19979;-84
2021/08/18 01:26:23;;;;;;;;;;;16.90;99.90;;;16.07;100.00;100469.94;5008570;28;19929;-84
2021/08/18 01:28:52;;;;;;;;;;;16.90;99.90;;;16.11;99.82;100468.44;5008892;28;19984;-83
2021/08/18 01:31:19;;;;;;;;;;;16.90;99.90;;;16.15;99.73;100461.44;5008910;28;19930;-84
2021/08/18 01:33:47;;;;;;;;;;;16.90;99.90;;;16.14;99.81;100470.72;4991862;28;20024;-84
2021/08/18 01:36:14;;;;;;;;;;;16.90;99.90;;;16.10;100.00;100475.00;5008570;28;20035;-84
2021/08/18 01:38:41;;;;;;;;;;;16.90;99.90;;;16.12;99.97;100478.34;5009457;28;19929;-84
2021/08/18 01:41:08;;;;;;;;;;;17.00;99.90;;;16.09;100.00;100470.53;5009480;28;20007;-83
2021/08/18 01:43:36;;;;;;;;;;;17.00;99.90;;;16.10;100.00;100473.06;5008751;28;19931;-84
2021/08/18 01:46:04;;;;;;;;;;;16.90;99.90;;;16.14;99.99;100471.56;5009044;28;19968;-83
2021/08/18 01:48:32;;;;;;;;;;;16.90;99.90;;;16.17;99.62;100475.78;5008720;28;19935;-84
2021/08/18 01:51:02;;;;;;;;;;;16.90;99.90;;;16.16;99.57;100474.97;5009227;28;19991;-84
2021/08/18 01:53:32;;;;;;;;;;;16.90;99.90;;;16.16;99.63;100474.09;5007019;28;19939;-84
2021/08/18 01:56:01;;;;;;;;;;;16.90;99.90;;;16.14;100.00;100473.47;5008781;28;19930;-83
2021/08/18 01:58:29;;;;;;;;;;;17.00;99.90;;;16.12;100.00;100476.44;5008520;28;19937;-84
2021/08/18 02:00:57;;;;;;;;;;;17.00;99.90;;;16.14;99.89;100481.72;5008408;28;20000;-83
2021/08/18 02:03:25;;;;;;;;;;;17.00;99.90;;;16.13;100.00;100480.03;5008912;28;19929;-83
2021/08/18 02:05:52;;;;;;;;;;;17.00;99.90;;;16.14;100.00;100481.72;4991191;28;20366;-84
2021/08/18 02:08:19;;;;;;;;;;;17.00;99.90;;;16.14;100.00;100485.28;5008968;28;20016;-84
2021/08/18 02:10:46;;;;;;;;;;;17.00;99.90;;;16.16;99.80;100474.09;4991125;28;20715;-84
2021/08/18 02:13:14;;;;;;;;;;;17.00;99.90;;;16.15;100.00;100483.41;5007916;28;19996;-84
2021/08/18 02:15:42;;;;;;;;;;;17.00;99.90;;;16.14;100.00;100476.22;5008053;28;19957;-84
2021/08/18 02:18:10;;;;;;;;;;;17.00;99.90;;;16.11;100.00;100482.19;5008422;28;20036;-84
2021/08/18 02:20:39;;;;;;;;;;;17.00;99.90;;;16.09;100.00;100478.78;5009106;28;19969;-84
2021/08/18 02:23:07;;;;;;;;;;;17.00;99.90;;;16.08;100.00;100477.94;5008885;28;19933;-84
2021/08/18 02:25:36;;;;;;;;;;;17.00;99.90;;;16.08;100.00;100485.34;5008843;28;19956;-84
2021/08/18 02:28:04;;;;;;;;;;;17.00;99.90;;;16.12;100.00;100478.34;5008331;28;19929;-84
2021/08/18 02:30:31;;;;;;;;;;;17.00;99.90;;;16.07;100.00;100491.88;5008547;28;20038;-84
2021/08/18 02:32:59;;;;;;;;;;;17.00;99.90;;;16.09;100.00;100484.28;5007921;28;20404;-84
2021/08/18 02:35:27;;;;;;;;;;;17.00;99.90;;;16.08;100.00;100485.34;5008140;28;20012;-84
2021/08/18 02:37:56;;;;;;;;;;;17.00;99.90;;;16.09;100.00;100485.13;5007658;28;20461;-83
2021/08/18 02:40:24;;;;;;;;;;;16.90;99.90;;;16.13;100.00;100480.88;5008359;28;20398;-84
2021/08/18 02:42:52;;;;;;;;;;;16.90;99.90;;;16.13;100.00;100480.88;5008570;28;19936;-84
2021/08/18 02:45:20;;;;;;;;;;;16.90;99.90;;;16.12;100.00;100478.34;5008213;28;20343;-84
2021/08/18 02:47:48;;;;;;;;;;;16.90;99.90;;;16.13;100.00;100474.56;5008158;28;19929;-83
2021/08/18 02:50:17;;;;;;;;;;;17.00;99.90;;;16.11;100.00;100482.19;5007969;28;19933;-84
2021/08/18 02:52:44;;;;;;;;;;;17.00;99.90;;;16.12;100.00;100472.84;5008468;28;20305;-83
2021/08/18 02:55:13;;;;;;;;;;;17.00;99.90;;;16.10;100.00;100475.00;4990783;28;20016;-84
2021/08/18 02:57:40;;;;;;;;;;;17.00;99.90;;;16.13;100.00;100469.91;5007557;28;19953;-83
2021/08/18 03:00:09;;;;;;;;;;;17.00;99.90;;;16.13;100.00;100480.03;5008614;28;19931;-84
2021/08/18 03:02:36;;;;;;;;;;;17.00;99.90;;;16.15;100.00;100477.91;5008636;28;19929;-83
2021/08/18 03:05:04;;;;;;;;;;;17.00;99.90;;;16.14;100.00;100474.31;5008452;28;19932;-84
2021/08/18 03:07:31;;;;;;;;;;;17.00;99.90;;;16.13;100.00;100474.56;5007292;28;19981;-84
2021/08/18 03:09:58;;;;;;;;;;;17.00;99.90;;;16.11;100.00;100471.19;5007823;28;19999;-84
2021/08/18 03:12:26;;;;;;;;;;;17.00;99.90;;;16.11;100.00;100482.19;5007910;28;19937;-83
2021/08/18 03:14:53;;;;;;;;;;;17.00;99.90;;;16.11;100.00;100473.94;5007649;28;20380;-83
2021/08/18 03:17:20;;;;;;;;;;;17.00;99.90;;;16.09;100.00;100481.53;5007658;28;20408;-83
2021/08/18 03:19:47;;;;;;;;;;;17.00;99.90;;;16.08;100.00;100490.84;5007665;28;20028;-84
2021/08/18 03:22:15;;;;;;;;;;;17.00;99.90;;;16.08;100.00;100477.94;5008090;28;19965;-83
2021/08/18 03:24:42;;;;;;;;;;;17.00;99.90;;;16.11;100.00;100479.44;5007639;28;19979;-84
2021/08/18 03:27:09;;;;;;;;;;;17.00;99.90;;;16.11;100.00;100476.69;5008060;28;20020;-84
2021/08/18 03:29:38;;;;;;;;;;;17.00;99.90;;;16.07;100.00;100475.41;5007995;28;20720;-84
2021/08/18 03:32:06;;;;;;;;;;;17.00;99.90;;;16.09;100.00;100476.03;5008092;28;19961;-83
2021/08/18 03:34:33;;;;;;;;;;;17.00;99.90;;;16.10;100.00;100470.31;5007468;28;20314;-83
2021/08/18 03:37:00;;;;;;;;;;;17.00;99.90;;;16.09;100.00;100476.03;5007569;28;20716;-84
2021/08/18 03:39:27;;;;;;;;;;;17.00;99.90;;;16.06;100.00;100474.59;5007867;28;19976;-84
2021/08/18 03:41:55;;;;;;;;;;;17.00;99.90;;;16.10;100.00;100478.56;5008118;28;20396;-83
2021/08/18 03:44:22;;;;;;;;;;;17.00;99.90;;;16.11;100.00;100471.19;4990445;28;20476;-83
2021/08/18 03:46:50;;;;;;;;;;;17.00;99.90;;;16.15;100.00;100480.66;5008291;28;20028;-84
2021/08/18 03:49:17;;;;;;;;;;;17.00;99.90;;;16.16;100.00;100474.09;5011449;28;20024;-84
2021/08/18 03:51:45;;;;;;;;;;;17.00;99.90;;;16.17;100.00;100479.38;4993597;28;20147;-84
2021/08/18 03:54:12;;;;;;;;;;;17.10;99.90;;;16.16;100.00;100474.97;5010249;28;19933;-83
2021/08/18 03:56:39;;;;;;;;;;;17.00;99.90;;;16.14;100.00;100476.22;5010339;28;19976;-83
2021/08/18 03:59:06;;;;;;;;;;;17.00;99.90;;;16.10;100.00;100481.31;5011399;28;20388;-83
2021/08/18 04:01:33;;;;;;;;;;;17.00;99.90;;;16.11;100.00;100471.19;5011328;28;20468;-83
2021/08/18 04:04:01;;;;;;;;;;;17.00;99.90;;;16.12;100.00;100467.38;5011171;28;20470;-84
2021/08/18 04:06:28;;;;;;;;;;;17.00;99.90;;;16.10;100.00;100469.50;5010950;28;19933;-84
2021/08/18 04:08:56;;;;;;;;;;;17.00;99.90;;;16.11;100.00;100471.19;5010722;28;20382;-83
2021/08/18 04:11:23;;;;;;;;;;;17.00;99.90;;;16.12;100.00;100470.13;4993552;28;19938;-83
2021/08/18 04:13:50;;;;;;;;;;;17.00;99.90;;;16.13;100.00;100472.63;5010912;28;19968;-83
2021/08/18 04:16:17;;;;;;;;;;;17.00;99.90;;;16.09;100.00;100471.41;5010761;28;20015;-83
2021/08/18 04:18:45;;;;;;;;;;;17.00;99.90;;;16.11;100.00;100471.19;5010888;28;19929;-83
2021/08/18 04:21:14;;;;;;;;;;;17.00;99.90;;;16.14;100.00;100476.22;5010705;28;20416;-83
2021/08/18 04:23:41;;;;;;;;;;;17.00;99.90;;;16.13;100.00;100480.03;5010389;28;20461;-84
2021/08/18 04:26:08;;;;;;;;;;;17.00;99.90;;;16.15;100.00;100478.75;5010668;28;19967;-84
2021/08/18 04:28:35;;;;;;;;;;;17.00;99.90;;;16.14;100.00;100481.72;5010915;28;20321;-84
2021/08/18 04:31:02;;;;;;;;;;;17.00;99.90;;;16.15;100.00;100477.91;5010383;28;19929;-84
2021/08/18 04:33:29;;;;;;;;;;;17.00;99.90;;;16.13;100.00;100488.28;5010552;28;20028;-84
2021/08/18 04:35:56;;;;;;;;;;;17.00;99.90;;;16.12;100.00;100481.09;5009933;28;19929;-87
2021/08/18 04:38:25;;;;;;;;;;;17.00;99.90;;;16.14;100.00;100476.22;5010527;28;20315;-85
2021/08/18 04:40:52;;;;;;;;;;;17.00;99.90;;;16.16;100.00;100485.06;5010000;28;20028;-85
2021/08/18 04:43:19;;;;;;;;;;;17.00;99.90;;;16.17;100.00;100487.59;5010522;28;20450;-84
2021/08/18 04:45:46;;;;;;;;;;;17.00;99.90;;;16.16;100.00;100487.81;4992510;28;19930;-85
2021/08/18 04:48:13;;;;;;;;;;;17.00;99.90;;;16.15;100.00;100483.41;4991958;28;19929;-88
2021/08/18 04:50:40;;;;;;;;;;;17.00;99.90;;;16.16;100.00;100485.06;5010342;28;19987;-87
2021/08/18 04:53:08;;;;;;;;;;;17.00;99.90;;;16.17;100.00;100486.78;5009944;28;20016;-87
2021/08/18 04:55:37;;;;;;;;;;;17.00;99.90;;;16.17;100.00;100490.34;4992924;28;19975;-87
2021/08/18 04:58:04;;;;;;;;;;;17.00;99.90;;;16.19;100.00;100490.13;5009278;28;19933;-87
2021/08/18 05:00:31;;;;;;;;;;;16.90;99.90;;;16.16;100.00;100496.06;5010192;28;19936;-86
2021/08/18 05:02:59;;;;;;;;;;;17.00;99.90;;;16.17;100.00;100497.75;5007897;28;19929;-86
2021/08/18 05:05:26;;;;;;;;;;;17.00;99.90;;;16.17;100.00;100506.00;5009791;28;19929;-85
2021/08/18 05:07:55;;;;;;;;;;;17.00;99.90;;;16.13;100.00;100496.53;5009426;28;19975;-88
2021/08/18 05:10:22;;;;;;;;;;;17.00;99.90;;;16.15;100.00;100492.47;5010147;28;19925;-85
2021/08/18 05:12:51;;;;;;;;;;;17.00;99.90;;;16.16;100.00;100496.06;5009771;28;20024;-85
2021/08/18 05:15:18;;;;;;;;;;;17.00;99.90;;;16.16;100.00;100485.06;5010432;28;19973;-86
2021/08/18 05:17:45;;;;;;;;;;;17.00;99.90;;;16.16;100.00;100487.81;5006292;28;20274;-83
2021/08/18 05:20:12;;;;;;;;;;;16.90;99.90;;;16.15;99.95;100483.41;5009158;28;20390;-83
2021/08/18 05:22:40;;;;;;;;;;;17.00;99.90;;;16.14;99.98;100487.19;5009157;28;20019;-82
2021/08/18 05:25:07;;;;;;;;;;;17.00;99.90;;;16.15;100.00;100477.91;5009794;28;20044;-79
2021/08/18 05:27:34;;;;;;;;;;;17.00;99.90;;;16.15;100.00;100478.75;5009345;28;20010;-83
2021/08/18 05:30:03;;;;;;;;;;;17.00;99.90;;;16.17;100.00;100479.38;5009169;28;19933;-79
2021/08/18 05:32:30;;;;;;;;;;;17.00;99.90;;;16.19;100.00;100484.63;5009103;28;19937;-79
2021/08/18 05:34:57;;;;;;;;;;;17.00;99.90;;;16.20;100.00;100481.69;5007883;28;20378;-80
2021/08/18 05:37:24;;;;;;;;;;;17.00;99.90;;;16.25;99.79;100493.91;5007981;28;19930;-80
2021/08/18 05:39:51;;;;;;;;;;;17.10;99.90;;;16.22;100.00;100486.91;5009512;28;20653;-79
2021/08/18 05:42:18;;;;;;;;;;;17.20;99.90;;;16.25;100.00;100494.72;5005531;28;19930;-82
2021/08/18 05:44:45;;;;;;;;;;;17.20;99.90;;;16.25;100.00;100489.22;5009404;28;20385;-81
2021/08/18 05:47:14;;;;;;;;;;;17.20;99.90;;;16.21;100.00;100493.50;5008709;28;19934;-81
2021/08/18 05:49:41;;;;;;;;;;;17.20;99.90;;;16.24;100.00;100498.56;5009570;28;20036;-81
2021/08/18 05:52:08;;;;;;;;;;;17.10;99.90;;;16.25;100.00;100497.47;5008780;28;19976;-82
2021/08/18 05:54:36;;;;;;;;;;;17.10;99.90;;;16.20;100.00;100497.28;5009199;28;20020;-82
2021/08/18 05:57:04;;;;;;;;;;;17.10;99.90;;;16.22;100.00;100497.91;5008215;28;19952;-82
2021/08/18 05:59:31;;;;;;;;;;;17.20;99.90;;;16.21;100.00;100499.81;5009240;28;19929;-81
2021/08/18 06:01:58;;;;;;;;;;;17.20;99.90;;;16.21;100.00;100494.31;5008340;28;20368;-80
2021/08/18 06:04:26;;;;;;;;;;;17.20;99.90;;;16.21;100.00;100499.00;5009047;28;20455;-79
2021/08/18 06:06:54;;;;;;;;;;;17.20;99.90;;;16.24;100.00;100493.06;5007895;28;19934;-80
2021/08/18 06:09:21;;;;;;;;;;;17.20;99.90;;;16.23;100.00;100496.84;5008421;28;19952;-79
2021/08/18 06:11:48;;;;;;;;;;;17.20;99.90;;;16.22;100.00;100490.53;5008488;28;19929;-79
2021/08/18 06:14:15;;;;;;;;;;;17.20;99.90;;;16.25;100.00;100505.72;5009162;28;19926;-80
2021/08/18 06:16:43;;;;;;;;;;;17.20;99.90;;;16.25;100.00;100500.22;4991201;28;19936;-79
2021/08/18 06:19:10;;;;;;;;;;;17.20;99.90;;;16.23;100.00;100508.69;5008377;28;19929;-81
2021/08/18 06:21:39;;;;;;;;;;;17.20;99.90;;;16.27;100.00;100509.06;5008659;28;20024;-79
2021/08/18 06:24:13;;;;;;;;;;;17.20;99.90;;;16.28;100.00;100508.03;5007817;28;20008;-79
2021/08/18 06:26:40;;;;;;;;;;;17.20;99.90;;;16.30;100.00;100516.06;5008697;28;21322;-79
2021/08/18 06:29:07;;;;;;;;;;;17.20;99.90;;;16.31;100.00;100510.31;5010844;28;19936;-79
2021/08/18 06:31:34;;;;;;;;;;;17.20;99.90;;;16.32;100.00;100506.50;5008691;28;20041;-80
2021/08/18 06:34:01;;;;;;;;;;;17.20;99.90;;;16.34;100.00;100504.38;5007854;28;19936;-81
2021/08/18 06:36:28;;;;;;;;;;;17.20;99.90;;;16.35;100.00;100502.47;5007826;28;19931;-81
2021/08/18 06:38:57;;;;;;;;;;;17.20;99.90;;;16.37;100.00;100498.44;5008761;28;19929;-78
2021/08/18 06:41:24;;;;;;;;;;;17.20;99.90;;;16.35;100.00;100508.78;5008695;28;20031;-78
2021/08/18 06:43:51;;;;;;;;;;;17.30;99.90;;;16.36;100.00;100507.75;5008549;28;20562;-82
2021/08/18 06:46:18;;;;;;;;;;;17.20;99.90;;;16.35;100.00;100505.22;5008169;28;19929;-80
2021/08/18 06:48:46;;;;;;;;;;;17.20;99.90;;;16.34;100.00;100503.53;5008529;28;19929;-79
2021/08/18 06:51:15;;;;;;;;;;;17.20;99.90;;;16.34;100.00;100504.38;5008182;28;20020;-79
2021/08/18 06:53:42;;;;;;;;;;;17.20;99.90;;;16.35;100.00;100511.53;5008793;28;19937;-79
2021/08/18 06:56:11;;;;;;;;;;;17.20;99.90;;;16.37;100.00;100520.44;5008426;28;20465;-79
2021/08/18 06:58:38;;;;;;;;;;;17.20;99.90;;;16.38;100.00;100518.50;5030238;22;19933;-83
2021/08/18 07:01:06;;;;;;;;;;;17.20;99.90;;;16.37;100.00;100517.69;5021302;28;20024;-83
2021/08/18 07:03:33;;;;;;;;;;;17.20;99.90;;;16.33;100.00;100518.34;5021317;28;20022;-83
2021/08/18 07:06:01;;;;;;;;;;;17.20;99.90;;;16.34;100.00;100515.38;5021026;28;19933;-83
2021/08/18 07:08:28;;;;;;;;;;;17.30;99.90;;;16.34;100.00;100511.78;5011981;28;20225;-83
2021/08/18 07:10:55;;;;;;;;;;;17.30;99.90;;;16.37;100.00;100509.44;5011052;28;20365;-82
2021/08/18 07:13:23;;;;;;;;;;;17.40;99.90;;;16.40;100.00;100514.47;5008904;28;19948;-81
2021/08/18 07:15:50;;;;;;;;;;;17.40;99.90;;;16.39;100.00;100506.44;5006890;28;20027;-81
2021/08/18 07:18:17;;;;;;;;;;;17.50;99.90;;;16.38;100.00;100510.28;5007974;28;19957;-81
2021/08/18 07:20:44;;;;;;;;;;;17.50;99.90;;;16.38;100.00;100511.09;5008015;28;19975;-81
2021/08/18 07:23:11;;;;;;;;;;;17.50;99.90;;;16.42;100.00;100511.50;5010981;28;19929;-81
2021/08/18 07:25:38;;;;;;;;;;;17.60;99.90;;;16.40;100.00;100519.13;5011815;28;19981;-81
2021/08/18 07:28:05;;;;;;;;;;;17.70;99.90;;;16.44;100.00;100516.78;5010410;28;19929;-81
2021/08/18 07:30:34;;;;;;;;;;;17.80;99.90;;;16.50;100.00;100518.63;5011839;28;20022;-81
2021/08/18 07:33:01;;;;;;;;;;;17.80;99.90;;;16.49;100.00;100512.31;5011129;28;20016;-81
2021/08/18 07:35:28;;;;;;;;;;;17.90;99.90;;;16.51;100.00;100514.81;5011595;28;19968;-83
2021/08/18 07:37:56;;;;;;;;;;;17.90;99.90;;;16.55;100.00;100510.56;5009245;28;19929;-81
2021/08/18 07:40:23;;;;;;;;;;;17.90;99.90;;;16.59;100.00;100512.63;5011489;28;19933;-81
2021/08/18 07:42:52;;;;;;;;;;;18.00;99.90;;;16.61;100.00;100506.91;5010063;28;20432;-80
2021/08/18 07:45:19;;;;;;;;;;;18.00;99.90;;;16.66;100.00;100506.22;5011377;28;19934;-81
2021/08/18 07:47:48;;;;;;;;;;;18.00;99.90;;;16.68;100.00;100509.59;5010759;28;20378;-81
2021/08/18 07:50:15;;;;;;;;;;;18.00;99.90;;;16.69;100.00;100509.38;5011408;28;20016;-81
2021/08/18 07:52:42;;;;;;;;;;;18.00;99.90;;;16.72;100.00;100510.84;5010686;28;19936;-81
2021/08/18 07:55:10;;;;;;;;;;;18.10;99.90;;;16.71;100.00;100514.63;5011200;28;19935;-81
2021/08/18 07:57:37;;;;;;;;;;;18.10;99.90;;;16.72;100.00;100510.84;5010199;28;19976;-81
2021/08/18 08:00:05;;;;;;;;;;;18.20;99.90;;;16.76;100.00;100517.56;5011206;28;19930;-86
2021/08/18 08:02:39;;;;;;;;;;;18.20;99.90;;;16.77;100.00;100514.59;5011169;28;19960;-80
2021/08/18 08:05:09;;;;;;;;;;;18.20;99.90;;;16.78;100.00;100516.25;5010922;28;19996;-80
2021/08/18 08:07:36;;;;;;;;;;;18.20;99.90;;;16.78;100.00;100516.25;5010500;28;20027;-80
2021/08/18 08:10:03;;;;;;;;;;;18.20;99.90;;;16.81;100.00;100518.56;5010490;28;19929;-80
2021/08/18 08:12:30;;;;;;;;;;;18.30;99.90;;;16.81;100.00;100521.31;5011054;28;19932;-80
2021/08/18 08:14:57;;;;;;;;;;;18.30;99.90;;;16.87;100.00;100518.75;5010268;28;20016;-80
2021/08/18 08:17:24;;;;;;;;;;;18.40;99.90;;;16.93;100.00;100518.69;5009245;28;19929;-80
2021/08/18 08:19:51;;;;;;;;;;;18.60;99.90;;;16.97;100.00;100527.34;5010925;28;19951;-80
2021/08/18 08:22:20;;;;;;;;;;;18.80;99.90;;;17.02;100.00;100522.00;5010353;28;20394;-80
2021/08/18 08:24:47;;;;;;;;;;;19.00;99.90;;;17.04;100.00;100528.13;5010863;28;20024;-80
2021/08/18 08:27:14;;;;;;;;;;;19.10;99.70;;;17.11;100.00;100525.28;5010457;28;19929;-80
2021/08/18 08:29:41;;;;;;;;;;;19.20;99.60;;;17.12;100.00;100522.31;5010866;28;19936;-81
2021/08/18 08:32:09;;;;;;;;;;;19.30;98.60;;;17.15;100.00;100521.00;5009722;28;19929;-80
2021/08/18 08:34:37;;;;;;;;;;;19.30;98.40;;;17.24;100.00;100519.63;5010402;28;19930;-80
2021/08/18 08:37:04;;;;;;;;;;;19.40;98.70;;;17.29;100.00;100522.56;5009079;28;19929;-80
2021/08/18 08:39:33;;;;;;;;;;;19.50;98.70;;;17.34;100.00;100517.22;5010495;28;20032;-80
2021/08/18 08:42:02;;;;;;;;;;;19.70;98.30;;;17.43;100.00;100517.72;5010005;28;19937;-80
2021/08/18 08:44:29;;;;;;;;;;;19.90;98.80;;;17.48;100.00;100515.13;5010001;28;20414;-80
2021/08/18 08:46:56;;;;;;;;;;;20.00;97.90;;;17.50;100.00;100518.50;5010147;28;19968;-81
2021/08/18 08:49:23;;;;;;;;;;;20.00;97.60;;;17.49;100.00;100519.56;5009749;28;19976;-80
2021/08/18 08:51:52;;;;;;;;;;;20.00;96.20;;;17.52;100.00;100515.53;5008901;28;19967;-80
2021/08/18 08:54:20;;;;;;;;;;;20.00;96.50;;;17.55;100.00;100513.16;5009810;28;19933;-81
2021/08/18 08:56:48;;;;;;;;;;;20.00;96.80;;;17.58;100.00;100509.91;5010091;28;20368;-80
2021/08/18 08:59:15;;;;;;;;;;;20.00;96.20;;;17.63;100.00;100513.88;5010150;28;20011;-81
2021/08/18 09:02:02;;;;;;;;;;;20.00;95.90;;;17.64;100.00;100518.31;5009358;28;19965;-81
2021/08/18 09:04:30;;;;;;;;;;;19.90;96.10;;;17.65;100.00;100512.59;5009655;28;19941;-80
2021/08/18 09:07:05;;;;;;;;;;;19.90;96.90;;;17.64;100.00;100508.16;5009114;28;19930;-80
2021/08/18 09:09:32;;;;;;;;;;;19.80;96.80;;;17.65;100.00;100515.34;5010074;28;19941;-80
2021/08/18 09:12:05;;;;;;;;;;;19.80;97.70;;;17.66;100.00;100506.00;5009898;28;19933;-80
2021/08/18 09:14:32;;;;;;;;;;;19.70;97.50;;;17.64;100.00;100516.41;5009821;28;19930;-80
2021/08/18 09:16:59;;;;;;;;;;;19.70;97.20;;;17.64;100.00;100512.81;5009071;28;20008;-80
2021/08/18 09:19:30;;;;;;;;;;;19.60;97.30;;;17.66;100.00;100521.69;5009919;28;19973;-80
2021/08/18 09:22:06;;;;;;;;;;;19.50;97.50;;;17.65;100.00;100520.84;5009741;28;19936;-80
2021/08/18 09:24:34;;;;;;;;;;;19.50;97.40;;;17.64;100.00;100524.66;5009755;28;19939;-80
2021/08/18 09:27:08;;;;;;;;;;;19.50;97.40;;;17.64;100.00;100515.56;5009338;28;20334;-80
2021/08/18 09:29:44;;;;;;;;;;;19.40;97.20;;;17.62;100.00;100520.47;5009377;28;19933;-80
2021/08/18 09:32:27;;;;;;;;;;;19.30;97.60;;;17.59;100.00;100514.38;5007898;28;20016;-80
2021/08/18 09:34:56;;;;;;;;;;;19.30;98.00;;;17.59;100.00;100514.38;5009115;28;20401;-80
2021/08/18 09:37:24;;;;;;;;;;;19.20;98.20;;;17.61;100.00;100525.16;5009116;28;19932;-80
2021/08/18 09:39:51;;;;;;;;;;;19.20;98.20;;;17.62;100.00;100521.31;5008976;28;19933;-80
2021/08/18 09:42:30;;;;;;;;;;;19.10;98.40;;;17.58;100.00;100520.91;5008162;28;20198;-80
2021/08/18 09:45:34;;;;;;;;;;;19.00;98.70;;;17.56;100.00;100520.31;5008349;28;19930;-80
2021/08/18 09:48:07;;;;;;;;;;;19.00;99.00;;;17.53;100.00;100525.44;5003676;28;19957;-80
2021/08/18 09:50:45;;;;;;;;;;;18.90;99.20;;;17.52;100.00;100515.53;5009330;28;19929;-79
2021/08/18 09:53:15;;;;;;;;;;;18.90;99.50;;;17.51;100.00;100514.66;5008007;28;19979;-80
2021/08/18 09:55:50;;;;;;;;;;;18.90;99.50;;;17.50;100.00;100514.91;5008285;28;20023;-83
2021/08/18 09:58:23;;;;;;;;;;;18.90;99.80;;;17.46;100.00;100520.03;5008475;28;20636;-78
2021/08/18 10:00:51;;;;;;;;;;;18.80;99.50;;;17.42;100.00;100518.81;5008885;28;20082;-80
2021/08/18 10:03:19;;;;;;;;;;;18.90;99.50;;;17.44;100.00;100519.41;5009082;28;20362;-78
2021/08/18 10:05:48;;;;;;;;;;;18.90;99.30;;;17.44;100.00;100530.44;5008882;28;19977;-78
2021/08/18 10:08:15;;;;;;;;;;;18.90;99.90;;;17.45;100.00;100523.84;5008726;28;19940;-78
2021/08/18 10:10:43;;;;;;;;;;;18.90;99.80;;;17.49;100.00;100521.47;5006997;28;20726;-81
2021/08/18 10:13:11;;;;;;;;;;;18.90;99.60;;;17.50;100.00;100528.66;5008877;28;20466;-82
2021/08/18 10:15:40;;;;;;;;;;;19.00;99.90;;;17.53;100.00;100515.25;5008503;28;19988;-82
2021/08/18 10:18:08;;;;;;;;;;;19.00;99.90;;;17.55;100.00;100515.91;5008700;28;19936;-80
2021/08/18 10:20:36;;;;;;;;;;;19.10;99.90;;;17.59;100.00;100517.13;5008790;28;19929;-80
2021/08/18 10:23:06;;;;;;;;;;;19.20;99.50;;;17.62;100.00;100517.72;5007862;28;19929;-80
2021/08/18 10:25:36;;;;;;;;;;;19.40;99.60;;;17.58;100.00;100514.59;5008091;28;19937;-81
2021/08/18 10:28:05;;;;;;;;;;;19.40;98.70;;;17.61;100.00;100513.28;5007632;28;19968;-81
2021/08/18 10:30:33;;;;;;;;;;;19.40;98.20;;;17.63;100.00;100511.13;5008334;28;19936;-80
2021/08/18 10:33:01;;;;;;;;;;;19.50;98.50;;;17.67;100.00;100523.34;5008276;28;19983;-80
2021/08/18 10:35:47;;;;;;;;;;;19.50;98.40;;;17.66;100.00;100518.94;5008416;28;20064;-81
2021/08/18 10:38:36;;;;;;;;;;;19.50;98.20;;;17.71;100.00;100521.84;5007607;28;19957;-80
2021/08/18 10:41:03;;;;;;;;;;;19.60;98.70;;;17.70;100.00;100517.41;5007672;28;19929;-80
2021/08/18 10:43:58;;;;;;;;;;;19.60;98.40;;;17.70;100.00;100518.22;5007847;28;19929;-80
2021/08/18 10:46:26;;;;;;;;;;;19.70;98.40;;;17.76;100.00;100509.06;5007669;28;20370;-81
2021/08/18 10:49:04;;;;;;;;;;;19.70;98.10;;;17.77;100.00;100510.72;5008074;28;20378;-80
2021/08/18 10:51:54;;;;;;;;;;;19.80;98.00;;;17.81;100.00;100508.34;5007797;28;20016;-80
2021/08/18 10:54:43;;;;;;;;;;;19.80;97.30;;;17.83;100.00;100505.38;5007703;28;19929;-82
2021/08/18 10:57:35;;;;;;;;;;;19.90;98.20;;;17.82;100.00;100500.94;5009169;28;20032;-84
2021/08/18 11:00:16;;;;;;;;;;;19.90;97.80;;;17.83;100.00;100497.94;5012248;28;20351;-84
2021/08/18 11:03:01;;;;;;;;;;;19.90;97.10;;;17.85;100.00;100495.84;5010740;28;20319;-84
2021/08/18 11:05:42;;;;;;;;;;;19.90;97.20;;;17.81;100.00;100500.09;5012012;28;19937;-85
2021/08/18 11:08:11;;;;;;;;;;;19.90;96.90;;;17.83;100.00;100499.88;5011646;28;19935;-85
2021/08/18 11:10:41;;;;;;;;;;;19.90;96.90;;;17.86;100.00;100500.28;5011765;28;20023;-85